createdAt,value
2017-11-12T00:00:59.475Z,8.97
2017-11-12T00:01:59.465Z,8.89
2017-11-12T00:02:59.775Z,8.86
2017-11-12T00:03:59.765Z,8.95
2017-11-12T00:04:59.758Z,8.99
2017-11-12T00:05:59.753Z,8.9
2017-11-12T00:06:59.418Z,8.93
2017-11-12T00:07:59.747Z,8.92
2017-11-12T00:08:59.718Z,8.9
2017-11-12T00:09:59.708Z,9.08
2017-11-12T00:10:59.699Z,9
2017-11-12T00:11:59.365Z,8.82
2017-11-12T00:12:59.676Z,8.97
2017-11-12T00:13:59.669Z,8.9
2017-11-12T00:14:59.663Z,8.96
2017-11-12T00:15:59.326Z,8.96
2017-11-12T00:16:59.660Z,8.9
2017-11-12T00:17:58.983Z,9.09
2017-11-12T00:18:59.299Z,9.02
2017-11-12T00:19:59.439Z,8.99
2017-11-12T00:20:59.604Z,9.02
2017-11-12T00:21:59.642Z,8.95
2017-11-12T00:22:59.584Z,8.86
2017-11-12T00:23:59.574Z,8.99
2017-11-12T00:24:59.564Z,8.93
2017-11-12T00:25:59.561Z,8.9
2017-11-12T00:26:59.223Z,8.9
2017-11-12T00:27:59.536Z,8.89
2017-11-12T00:28:59.537Z,8.92
2017-11-12T00:29:59.194Z,8.9
2017-11-12T00:30:59.508Z,8.81
2017-11-12T00:31:59.175Z,8.99
2017-11-12T00:32:59.160Z,8.92
2017-11-12T00:33:58.831Z,8.92
2017-11-12T00:34:59.146Z,8.9
2017-11-12T00:35:59.461Z,8.9
2017-11-12T00:36:59.445Z,8.92
2017-11-12T00:37:59.446Z,8.93
2017-11-12T00:38:59.425Z,8.99
2017-11-12T00:39:59.420Z,9
2017-11-12T00:40:59.094Z,8.99
2017-11-12T00:41:59.401Z,9.03
2017-11-12T00:42:59.396Z,8.97
2017-11-12T00:43:59.055Z,8.9
2017-11-12T00:44:59.370Z,8.97
2017-11-12T00:45:59.363Z,8.89
2017-11-12T00:46:59.356Z,8.96
2017-11-12T00:47:59.018Z,9.02
2017-11-12T00:48:59.339Z,9
2017-11-12T00:49:59.325Z,9.02
2017-11-12T00:50:58.992Z,9.03
2017-11-12T00:51:59.305Z,9.02
2017-11-12T00:52:58.975Z,9
2017-11-12T00:53:59.283Z,9.03
2017-11-12T00:54:59.282Z,9.09
2017-11-12T00:55:58.947Z,8.95
2017-11-12T00:56:59.272Z,9.05
2017-11-12T00:57:59.252Z,9.03
2017-11-12T00:58:59.237Z,9
2017-11-12T00:59:59.008Z,9.09
2017-11-12T01:00:59.225Z,9.03
2017-11-12T01:01:59.206Z,9
2017-11-12T01:02:59.207Z,9
2017-11-12T01:03:58.868Z,9.03
2017-11-12T01:04:59.278Z,9.02
2017-11-12T01:05:58.947Z,9.02
2017-11-12T01:06:59.161Z,9.11
2017-11-12T01:07:59.154Z,9.03
2017-11-12T01:08:59.243Z,9
2017-11-12T01:09:59.135Z,8.96
2017-11-12T01:10:59.122Z,9
2017-11-12T01:11:58.796Z,9.03
2017-11-12T01:12:58.780Z,9.03
2017-11-12T01:13:59.198Z,9.09
2017-11-12T01:14:59.190Z,9
2017-11-12T01:15:59.224Z,9.11
2017-11-12T01:16:59.070Z,8.97
2017-11-12T01:17:59.073Z,9.13
2017-11-12T01:18:59.195Z,9.03
2017-11-12T01:19:59.046Z,9
2017-11-12T01:20:58.708Z,9.02
2017-11-12T01:21:58.699Z,9.02
2017-11-12T01:22:58.688Z,9.03
2017-11-12T01:23:58.999Z,8.99
2017-11-12T01:24:59.146Z,9.12
2017-11-12T01:25:58.992Z,9.05
2017-11-12T01:26:58.970Z,9.05
2017-11-12T01:27:58.968Z,9.03
2017-11-12T01:28:58.954Z,9.13
2017-11-12T01:29:59.048Z,9.13
2017-11-12T01:30:58.943Z,9.15
2017-11-12T01:31:58.929Z,9.15
2017-11-12T01:32:58.913Z,9.03
2017-11-12T01:33:58.586Z,9.11
2017-11-12T01:34:58.901Z,9.16
2017-11-12T01:35:58.884Z,9.15
2017-11-12T01:36:58.889Z,9.16
2017-11-12T01:37:58.875Z,9.12
2017-11-12T01:38:58.861Z,9.09
2017-11-12T01:39:58.846Z,9.11
2017-11-12T01:40:58.834Z,9.19
2017-11-12T01:41:58.509Z,9.15
2017-11-12T01:42:58.492Z,9.11
2017-11-12T01:43:58.809Z,9.09
2017-11-12T01:44:58.914Z,9.12
2017-11-12T01:45:58.473Z,9.09
2017-11-12T01:46:58.455Z,9.12
2017-11-12T01:47:58.771Z,9.16
2017-11-12T01:48:58.775Z,9.11
2017-11-12T01:49:58.428Z,9.11
2017-11-12T01:50:58.845Z,9.09
2017-11-12T01:51:58.734Z,9.22
2017-11-12T01:52:58.730Z,9.15
2017-11-12T01:53:58.719Z,9.22
2017-11-12T01:54:58.699Z,9.16
2017-11-12T01:55:58.792Z,9.19
2017-11-12T01:56:58.683Z,9.16
2017-11-12T01:57:58.448Z,9.16
2017-11-12T01:58:58.707Z,9.26
2017-11-12T01:59:58.329Z,9.22
2017-11-12T02:00:58.323Z,9.21
2017-11-12T02:01:58.633Z,9.19
2017-11-12T02:02:58.625Z,9.18
2017-11-12T02:03:58.619Z,9.16
2017-11-12T02:04:58.609Z,9.16
2017-11-12T02:05:58.273Z,9.13
2017-11-12T02:06:58.593Z,9.15
2017-11-12T02:07:58.580Z,9.16
2017-11-12T02:08:58.562Z,9.18
2017-11-12T02:09:58.555Z,9.21
2017-11-12T02:10:58.549Z,9.26
2017-11-12T02:11:58.537Z,9.19
2017-11-12T02:12:58.303Z,9.26
2017-11-12T02:13:58.515Z,9.24
2017-11-12T02:14:58.189Z,9.22
2017-11-12T02:15:58.499Z,9.26
2017-11-12T02:16:58.486Z,9.24
2017-11-12T02:17:58.156Z,9.21
2017-11-12T02:18:58.587Z,9.26
2017-11-12T02:19:58.138Z,9.29
2017-11-12T02:20:58.450Z,9.24
2017-11-12T02:21:58.439Z,9.21
2017-11-12T02:22:58.107Z,9.22
2017-11-12T02:23:57.775Z,9.21
2017-11-12T02:24:58.417Z,9.27
2017-11-12T02:25:58.511Z,9.26
2017-11-12T02:26:58.069Z,9.21
2017-11-12T02:27:58.058Z,9.18
2017-11-12T02:28:58.383Z,9.22
2017-11-12T02:29:58.363Z,9.29
2017-11-12T02:30:58.398Z,9.22
2017-11-12T02:31:58.493Z,9.31
2017-11-12T02:32:58.332Z,9.29
2017-11-12T02:33:57.999Z,9.29
2017-11-12T02:34:58.418Z,9.33
2017-11-12T02:35:58.320Z,9.26
2017-11-12T02:36:58.294Z,9.26
2017-11-12T02:37:58.289Z,9.3
2017-11-12T02:38:57.958Z,9.3
2017-11-12T02:39:58.267Z,9.27
2017-11-12T02:40:57.609Z,9.33
2017-11-12T02:41:58.249Z,9.3
2017-11-12T02:42:58.343Z,9.27
2017-11-12T02:43:57.911Z,9.36
2017-11-12T02:44:58.367Z,9.33
2017-11-12T02:45:58.213Z,9.33
2017-11-12T02:46:58.195Z,9.4
2017-11-12T02:47:58.192Z,9.3
2017-11-12T02:48:58.214Z,9.36
2017-11-12T02:49:58.172Z,9.34
2017-11-12T02:50:58.159Z,9.45
2017-11-12T02:51:57.604Z,9.36
2017-11-12T02:52:58.149Z,9.39
2017-11-12T02:53:57.805Z,9.36
2017-11-12T02:54:58.115Z,9.36
2017-11-12T02:55:58.112Z,9.33
2017-11-12T02:56:58.098Z,9.44
2017-11-12T02:57:58.109Z,9.37
2017-11-12T02:58:57.762Z,9.4
2017-11-12T02:59:57.852Z,9.36
2017-11-12T03:00:58.165Z,9.39
2017-11-12T03:01:57.723Z,9.37
2017-11-12T03:02:57.717Z,9.37
2017-11-12T03:03:58.031Z,9.4
2017-11-12T03:04:58.025Z,9.42
2017-11-12T03:05:58.019Z,9.42
2017-11-12T03:06:58.017Z,9.47
2017-11-12T03:07:57.666Z,9.39
2017-11-12T03:08:57.979Z,9.45
2017-11-12T03:09:57.969Z,9.44
2017-11-12T03:10:57.638Z,9.51
2017-11-12T03:11:57.962Z,9.39
2017-11-12T03:12:57.623Z,9.49
2017-11-12T03:13:57.932Z,9.47
2017-11-12T03:14:57.927Z,9.42
2017-11-12T03:15:57.917Z,9.48
2017-11-12T03:16:57.901Z,9.44
2017-11-12T03:17:57.894Z,9.48
2017-11-12T03:18:57.887Z,9.42
2017-11-12T03:19:57.233Z,9.49
2017-11-12T03:20:57.539Z,9.47
2017-11-12T03:21:57.959Z,9.47
2017-11-12T03:22:57.943Z,9.47
2017-11-12T03:23:57.508Z,9.48
2017-11-12T03:24:57.822Z,9.39
2017-11-12T03:25:57.494Z,9.42
2017-11-12T03:26:57.805Z,9.47
2017-11-12T03:27:57.805Z,9.4
2017-11-12T03:28:57.460Z,9.42
2017-11-12T03:29:57.451Z,9.47
2017-11-12T03:30:57.776Z,9.45
2017-11-12T03:31:57.531Z,9.48
2017-11-12T03:32:57.423Z,9.52
2017-11-12T03:33:57.737Z,9.48
2017-11-12T03:34:57.729Z,9.54
2017-11-12T03:35:57.392Z,9.49
2017-11-12T03:36:57.704Z,9.48
2017-11-12T03:37:57.373Z,9.54
2017-11-12T03:38:57.377Z,9.51
2017-11-12T03:39:57.353Z,9.58
2017-11-12T03:40:57.344Z,9.49
2017-11-12T03:41:57.757Z,9.45
2017-11-12T03:42:57.327Z,9.51
2017-11-12T03:43:57.312Z,9.54
2017-11-12T03:44:57.628Z,9.49
2017-11-12T03:45:57.726Z,9.51
2017-11-12T03:46:57.605Z,9.48
2017-11-12T03:47:57.600Z,9.55
2017-11-12T03:48:57.589Z,9.52
2017-11-12T03:49:57.258Z,9.52
2017-11-12T03:50:57.578Z,9.58
2017-11-12T03:51:57.566Z,9.49
2017-11-12T03:52:57.238Z,9.62
2017-11-12T03:53:57.547Z,9.63
2017-11-12T03:54:57.203Z,9.59
2017-11-12T03:55:57.519Z,9.49
2017-11-12T03:56:57.508Z,9.56
2017-11-12T03:57:57.507Z,9.59
2017-11-12T03:58:57.168Z,9.62
2017-11-12T03:59:57.156Z,9.52
2017-11-12T04:00:57.469Z,9.55
2017-11-12T04:01:57.455Z,9.55
2017-11-12T04:02:56.805Z,9.59
2017-11-12T04:03:57.447Z,9.59
2017-11-12T04:04:57.580Z,9.56
2017-11-12T04:05:57.423Z,9.56
2017-11-12T04:06:57.411Z,9.55
2017-11-12T04:07:57.401Z,9.56
2017-11-12T04:08:57.403Z,9.59
2017-11-12T04:09:57.378Z,9.54
2017-11-12T04:10:57.473Z,9.59
2017-11-12T04:11:57.361Z,9.58
2017-11-12T04:12:57.352Z,9.56
2017-11-12T04:13:57.340Z,9.59
2017-11-12T04:14:57.330Z,9.55
2017-11-12T04:15:57.332Z,9.58
2017-11-12T04:16:57.310Z,9.58
2017-11-12T04:17:57.301Z,9.55
2017-11-12T04:18:57.290Z,9.62
2017-11-12T04:19:57.288Z,9.58
2017-11-12T04:20:57.051Z,9.66
2017-11-12T04:21:57.271Z,9.59
2017-11-12T04:22:57.263Z,9.62
2017-11-12T04:23:57.250Z,9.67
2017-11-12T04:24:57.235Z,9.67
2017-11-12T04:25:56.901Z,9.64
2017-11-12T04:26:56.890Z,9.66
2017-11-12T04:27:56.879Z,9.63
2017-11-12T04:28:57.294Z,9.63
2017-11-12T04:29:56.859Z,9.66
2017-11-12T04:30:57.176Z,9.72
2017-11-12T04:31:57.163Z,9.64
2017-11-12T04:32:57.160Z,9.67
2017-11-12T04:33:57.150Z,9.67
2017-11-12T04:34:56.514Z,9.66
2017-11-12T04:35:56.841Z,9.62
2017-11-12T04:36:57.118Z,9.69
2017-11-12T04:37:56.788Z,9.67
2017-11-12T04:38:57.096Z,9.7
2017-11-12T04:39:56.764Z,9.7
2017-11-12T04:40:56.904Z,9.69
2017-11-12T04:41:57.067Z,9.74
2017-11-12T04:42:57.057Z,9.76
2017-11-12T04:43:57.057Z,9.8
2017-11-12T04:44:57.047Z,9.77
2017-11-12T04:45:57.030Z,9.73
2017-11-12T04:46:57.020Z,9.76
2017-11-12T04:47:57.118Z,9.76
2017-11-12T04:48:57.111Z,9.74
2017-11-12T04:49:56.666Z,9.73
2017-11-12T04:50:56.656Z,9.82
2017-11-12T04:51:56.975Z,9.82
2017-11-12T04:52:56.637Z,9.72
2017-11-12T04:53:56.950Z,9.74
2017-11-12T04:54:56.618Z,9.81
2017-11-12T04:55:56.931Z,9.77
2017-11-12T04:56:56.934Z,9.88
2017-11-12T04:57:56.911Z,9.88
2017-11-12T04:58:56.679Z,9.77
2017-11-12T04:59:56.578Z,9.85
2017-11-12T05:00:56.885Z,9.85
2017-11-12T05:01:56.872Z,9.85
2017-11-12T05:02:56.865Z,9.91
2017-11-12T05:03:56.855Z,9.91
2017-11-12T05:04:56.525Z,9.87
2017-11-12T05:05:56.512Z,9.88
2017-11-12T05:06:56.177Z,9.87
2017-11-12T05:07:56.817Z,10.05
2017-11-12T05:08:56.805Z,9.97
2017-11-12T05:09:56.843Z,9.99
2017-11-12T05:10:56.807Z,9.94
2017-11-12T05:11:56.454Z,9.97
2017-11-12T05:12:56.444Z,9.97
2017-11-12T05:13:56.758Z,9.95
2017-11-12T05:14:56.748Z,9.97
2017-11-12T05:15:56.741Z,9.9
2017-11-12T05:16:56.730Z,9.88
2017-11-12T05:17:56.501Z,9.91
2017-11-12T05:18:56.708Z,9.97
2017-11-12T05:19:56.375Z,9.97
2017-11-12T05:20:56.365Z,9.95
2017-11-12T05:21:56.680Z,9.92
2017-11-12T05:22:56.345Z,9.94
2017-11-12T05:23:56.659Z,9.97
2017-11-12T05:24:56.654Z,9.92
2017-11-12T05:25:56.647Z,9.9
2017-11-12T05:26:56.628Z,9.94
2017-11-12T05:27:56.623Z,10.03
2017-11-12T05:28:56.718Z,9.97
2017-11-12T05:29:55.956Z,10
2017-11-12T05:30:56.590Z,10
2017-11-12T05:31:56.581Z,10
2017-11-12T05:32:56.255Z,10.02
2017-11-12T05:33:56.572Z,10.05
2017-11-12T05:34:56.229Z,10.03
2017-11-12T05:35:56.222Z,9.99
2017-11-12T05:36:56.539Z,9.99
2017-11-12T05:37:56.224Z,10.02
2017-11-12T05:38:56.190Z,10
2017-11-12T05:39:56.509Z,10
2017-11-12T05:40:55.949Z,10.05
2017-11-12T05:41:56.160Z,10.06
2017-11-12T05:42:56.474Z,10.03
2017-11-12T05:43:56.565Z,10.06
2017-11-12T05:44:56.459Z,10.03
2017-11-12T05:45:55.801Z,9.92
2017-11-12T05:46:56.115Z,10.06
2017-11-12T05:47:56.424Z,10.03
2017-11-12T05:48:56.417Z,10.03
2017-11-12T05:49:56.421Z,10.06
2017-11-12T05:50:56.075Z,10.02
2017-11-12T05:51:56.392Z,9.91
2017-11-12T05:52:56.477Z,9.97
2017-11-12T05:53:56.374Z,9.94
2017-11-12T05:54:56.362Z,9.92
2017-11-12T05:55:56.026Z,9.99
2017-11-12T05:56:56.341Z,9.95
2017-11-12T05:57:56.331Z,9.9
2017-11-12T05:58:56.320Z,9.92
2017-11-12T05:59:56.331Z,9.9
2017-11-12T06:00:56.322Z,9.97
2017-11-12T06:01:56.321Z,9.9
2017-11-12T06:02:55.977Z,9.91
2017-11-12T06:03:56.401Z,9.91
2017-11-12T06:04:56.283Z,9.9
2017-11-12T06:05:56.275Z,9.87
2017-11-12T06:06:56.273Z,9.9
2017-11-12T06:07:56.256Z,9.85
2017-11-12T06:08:56.030Z,9.82
2017-11-12T06:09:56.338Z,9.91
2017-11-12T06:10:55.898Z,9.9
2017-11-12T06:11:56.220Z,9.91
2017-11-12T06:12:56.211Z,9.88
2017-11-12T06:13:56.299Z,9.9
2017-11-12T06:14:56.188Z,9.82
2017-11-12T06:15:55.852Z,9.95
2017-11-12T06:16:55.841Z,9.91
2017-11-12T06:17:56.262Z,9.97
2017-11-12T06:18:55.827Z,9.94
2017-11-12T06:19:56.137Z,9.9
2017-11-12T06:20:56.130Z,9.91
2017-11-12T06:21:55.796Z,9.88
2017-11-12T06:22:56.117Z,9.97
2017-11-12T06:23:56.120Z,9.87
2017-11-12T06:24:56.098Z,9.9
2017-11-12T06:25:55.593Z,9.95
2017-11-12T06:26:56.078Z,9.95
2017-11-12T06:27:55.840Z,10.02
2017-11-12T06:28:56.058Z,10.05
2017-11-12T06:29:56.060Z,9.95
2017-11-12T06:30:56.189Z,10
2017-11-12T06:31:56.027Z,9.99
2017-11-12T06:32:56.019Z,10.02
2017-11-12T06:33:56.123Z,10
2017-11-12T06:34:55.997Z,10
2017-11-12T06:35:56.001Z,10
2017-11-12T06:36:55.656Z,9.99
2017-11-12T06:37:55.642Z,10.02
2017-11-12T06:38:55.978Z,10.07
2017-11-12T06:39:55.629Z,10.1
2017-11-12T06:40:55.943Z,10.03
2017-11-12T06:41:55.934Z,10.06
2017-11-12T06:42:55.600Z,10.07
2017-11-12T06:43:55.920Z,10.06
2017-11-12T06:44:55.905Z,10.1
2017-11-12T06:45:55.577Z,10.05
2017-11-12T06:46:55.566Z,10.05
2017-11-12T06:47:55.887Z,10.03
2017-11-12T06:48:55.546Z,10.15
2017-11-12T06:49:55.535Z,10.05
2017-11-12T06:50:55.848Z,10.05
2017-11-12T06:51:55.844Z,10.06
2017-11-12T06:52:55.676Z,10.06
2017-11-12T06:53:55.823Z,10.07
2017-11-12T06:54:55.820Z,10.03
2017-11-12T06:55:55.805Z,10.09
2017-11-12T06:56:55.792Z,10.07
2017-11-12T06:57:55.782Z,10.13
2017-11-12T06:58:55.607Z,10.17
2017-11-12T06:59:55.439Z,10.1
2017-11-12T07:00:55.757Z,10.13
2017-11-12T07:01:55.421Z,10.15
2017-11-12T07:02:55.735Z,10.09
2017-11-12T07:03:55.407Z,10.1
2017-11-12T07:04:55.495Z,10.17
2017-11-12T07:05:55.385Z,10.13
2017-11-12T07:06:55.699Z,10.06
2017-11-12T07:07:55.689Z,10.17
2017-11-12T07:08:55.684Z,10.15
2017-11-12T07:09:55.445Z,10.09
2017-11-12T07:10:55.661Z,10.18
2017-11-12T07:11:55.333Z,10.21
2017-11-12T07:12:55.315Z,10.17
2017-11-12T07:13:55.730Z,10.17
2017-11-12T07:14:55.297Z,10.21
2017-11-12T07:15:55.062Z,10.15
2017-11-12T07:16:55.759Z,10.17
2017-11-12T07:17:55.266Z,10.18
2017-11-12T07:18:54.932Z,10.25
2017-11-12T07:19:55.582Z,10.31
2017-11-12T07:20:55.575Z,10.27
2017-11-12T07:21:55.233Z,10.3
2017-11-12T07:22:55.545Z,10.28
2017-11-12T07:23:55.210Z,10.31
2017-11-12T07:24:55.214Z,10.31
2017-11-12T07:25:55.526Z,10.3
2017-11-12T07:26:55.511Z,10.23
2017-11-12T07:27:55.505Z,10.28
2017-11-12T07:28:55.485Z,10.31
2017-11-12T07:29:55.478Z,10.3
2017-11-12T07:30:55.477Z,10.3
2017-11-12T07:31:55.509Z,10.3
2017-11-12T07:32:55.126Z,10.27
2017-11-12T07:33:55.450Z,10.3
2017-11-12T07:34:55.433Z,10.27
2017-11-12T07:35:55.427Z,10.31
2017-11-12T07:36:55.412Z,10.3
2017-11-12T07:37:54.850Z,10.3
2017-11-12T07:38:55.065Z,10.3
2017-11-12T07:39:55.055Z,10.36
2017-11-12T07:40:55.048Z,10.36
2017-11-12T07:41:55.362Z,10.24
2017-11-12T07:42:55.029Z,10.25
2017-11-12T07:43:55.450Z,10.34
2017-11-12T07:44:55.008Z,10.36
2017-11-12T07:45:55.332Z,10.34
2017-11-12T07:46:55.318Z,10.38
2017-11-12T07:47:55.307Z,10.36
2017-11-12T07:48:55.294Z,10.34
2017-11-12T07:49:54.636Z,10.33
2017-11-12T07:50:55.276Z,10.39
2017-11-12T07:51:55.274Z,10.34
2017-11-12T07:52:54.607Z,10.36
2017-11-12T07:53:55.249Z,10.43
2017-11-12T07:54:54.912Z,10.41
2017-11-12T07:55:54.905Z,10.3
2017-11-12T07:56:54.897Z,10.38
2017-11-12T07:57:55.211Z,10.43
2017-11-12T07:58:55.298Z,10.31
2017-11-12T07:59:55.186Z,10.48
2017-11-12T08:00:55.189Z,10.41
2017-11-12T08:01:55.166Z,10.42
2017-11-12T08:02:55.167Z,10.46
2017-11-12T08:03:54.828Z,10.46
2017-11-12T08:04:55.148Z,10.41
2017-11-12T08:05:54.805Z,10.57
2017-11-12T08:06:55.124Z,10.48
2017-11-12T08:07:55.111Z,10.55
2017-11-12T08:08:55.202Z,10.48
2017-11-12T08:09:55.100Z,10.55
2017-11-12T08:10:55.089Z,10.51
2017-11-12T08:11:55.073Z,10.51
2017-11-12T08:12:55.072Z,10.55
2017-11-12T08:13:55.069Z,10.53
2017-11-12T08:14:55.156Z,10.61
2017-11-12T08:15:55.046Z,10.58
2017-11-12T08:16:54.694Z,10.57
2017-11-12T08:17:54.787Z,10.61
2017-11-12T08:18:54.675Z,10.53
2017-11-12T08:19:54.995Z,10.49
2017-11-12T08:20:54.996Z,10.53
2017-11-12T08:21:54.647Z,10.51
2017-11-12T08:22:54.964Z,10.59
2017-11-12T08:23:54.954Z,10.49
2017-11-12T08:24:54.947Z,10.64
2017-11-12T08:25:54.942Z,10.55
2017-11-12T08:26:54.920Z,10.59
2017-11-12T08:27:54.925Z,10.57
2017-11-12T08:28:54.903Z,10.45
2017-11-12T08:29:54.905Z,10.57
2017-11-12T08:30:54.558Z,10.51
2017-11-12T08:31:54.872Z,10.58
2017-11-12T08:32:54.866Z,10.53
2017-11-12T08:33:54.854Z,10.58
2017-11-12T08:34:54.947Z,10.48
2017-11-12T08:35:54.835Z,10.53
2017-11-12T08:36:54.827Z,10.48
2017-11-12T08:37:54.812Z,10.49
2017-11-12T08:38:54.806Z,10.51
2017-11-12T08:39:54.794Z,10.61
2017-11-12T08:40:54.618Z,10.58
2017-11-12T08:41:54.783Z,10.49
2017-11-12T08:42:54.443Z,10.68
2017-11-12T08:43:54.760Z,10.61
2017-11-12T08:44:54.851Z,10.65
2017-11-12T08:45:54.432Z,10.59
2017-11-12T08:46:54.411Z,10.59
2017-11-12T08:47:54.399Z,10.64
2017-11-12T08:48:54.393Z,10.64
2017-11-12T08:49:54.705Z,10.68
2017-11-12T08:50:54.701Z,10.71
2017-11-12T08:51:54.688Z,10.69
2017-11-12T08:52:54.674Z,10.68
2017-11-12T08:53:54.756Z,10.67
2017-11-12T08:54:54.334Z,10.69
2017-11-12T08:55:54.320Z,10.75
2017-11-12T08:56:54.647Z,10.68
2017-11-12T08:57:54.633Z,10.76
2017-11-12T08:58:54.287Z,10.72
2017-11-12T08:59:54.605Z,10.72
2017-11-12T09:00:54.693Z,10.71
2017-11-12T09:01:54.584Z,10.69
2017-11-12T09:02:54.592Z,10.75
2017-11-12T09:03:54.247Z,10.68
2017-11-12T09:04:54.560Z,10.75
2017-11-12T09:05:54.578Z,10.76
2017-11-12T09:06:54.213Z,10.72
2017-11-12T09:07:54.524Z,10.77
2017-11-12T09:08:54.516Z,10.83
2017-11-12T09:09:54.183Z,10.76
2017-11-12T09:10:54.496Z,10.76
2017-11-12T09:11:54.500Z,10.79
2017-11-12T09:12:54.517Z,10.84
2017-11-12T09:13:54.468Z,10.75
2017-11-12T09:14:54.130Z,10.83
2017-11-12T09:15:54.451Z,10.72
2017-11-12T09:16:53.788Z,10.79
2017-11-12T09:17:53.783Z,10.8
2017-11-12T09:18:53.768Z,10.83
2017-11-12T09:19:54.413Z,10.79
2017-11-12T09:20:53.750Z,10.82
2017-11-12T09:21:54.066Z,10.76
2017-11-12T09:22:54.052Z,10.77
2017-11-12T09:23:54.396Z,10.72
2017-11-12T09:24:54.037Z,10.69
2017-11-12T09:25:54.030Z,10.72
2017-11-12T09:26:54.341Z,10.77
2017-11-12T09:27:54.335Z,10.71
2017-11-12T09:28:54.000Z,10.65
2017-11-12T09:29:54.313Z,10.72
2017-11-12T09:30:54.306Z,10.68
2017-11-12T09:31:54.294Z,10.76
2017-11-12T09:32:54.386Z,10.72
2017-11-12T09:33:54.272Z,10.68
2017-11-12T09:34:53.941Z,10.69
2017-11-12T09:35:53.935Z,10.65
2017-11-12T09:36:53.928Z,10.71
2017-11-12T09:37:54.234Z,10.67
2017-11-12T09:38:54.224Z,10.68
2017-11-12T09:39:54.219Z,10.65
2017-11-12T09:40:53.906Z,10.76
2017-11-12T09:41:54.225Z,10.68
2017-11-12T09:42:54.187Z,10.67
2017-11-12T09:43:53.949Z,10.72
2017-11-12T09:44:54.168Z,10.71
2017-11-12T09:45:54.157Z,10.68
2017-11-12T09:46:53.924Z,10.68
2017-11-12T09:47:54.157Z,10.68
2017-11-12T09:48:54.137Z,10.69
2017-11-12T09:49:54.223Z,10.68
2017-11-12T09:50:54.210Z,10.62
2017-11-12T09:51:54.121Z,10.58
2017-11-12T09:52:54.090Z,10.68
2017-11-12T09:53:54.077Z,10.58
2017-11-12T09:54:54.073Z,10.67
2017-11-12T09:55:53.750Z,10.65
2017-11-12T09:56:53.404Z,10.65
2017-11-12T09:57:53.721Z,10.65
2017-11-12T09:58:53.722Z,10.64
2017-11-12T09:59:54.024Z,10.68
2017-11-12T10:00:54.015Z,10.62
2017-11-12T10:01:53.680Z,10.67
2017-11-12T10:02:53.989Z,10.67
2017-11-12T10:03:53.658Z,10.69
2017-11-12T10:04:53.651Z,10.68
2017-11-12T10:05:53.986Z,10.75
2017-11-12T10:06:53.634Z,10.72
2017-11-12T10:07:53.946Z,10.76
2017-11-12T10:08:53.942Z,10.83
2017-11-12T10:09:53.274Z,10.82
2017-11-12T10:10:53.913Z,10.77
2017-11-12T10:11:53.906Z,10.77
2017-11-12T10:12:53.897Z,10.76
2017-11-12T10:13:53.888Z,10.79
2017-11-12T10:14:53.556Z,10.77
2017-11-12T10:15:53.551Z,10.8
2017-11-12T10:16:53.878Z,10.82
2017-11-12T10:17:53.534Z,10.83
2017-11-12T10:18:53.849Z,10.87
2017-11-12T10:19:53.505Z,10.92
2017-11-12T10:20:53.649Z,10.86
2017-11-12T10:21:53.815Z,10.79
2017-11-12T10:22:53.804Z,10.83
2017-11-12T10:23:53.791Z,10.97
2017-11-12T10:24:53.133Z,10.92
2017-11-12T10:25:53.881Z,11
2017-11-12T10:26:53.764Z,11.02
2017-11-12T10:27:53.753Z,11.05
2017-11-12T10:28:53.419Z,11.07
2017-11-12T10:29:53.737Z,11.15
2017-11-12T10:30:53.728Z,11.15
2017-11-12T10:31:53.713Z,11.23
2017-11-12T10:32:53.705Z,11.13
2017-11-12T10:33:53.819Z,11.18
2017-11-12T10:34:53.692Z,11.16
2017-11-12T10:35:53.352Z,11.15
2017-11-12T10:36:53.679Z,11.12
2017-11-12T10:37:53.010Z,11.07
2017-11-12T10:38:53.648Z,11.05
2017-11-12T10:39:53.644Z,11.08
2017-11-12T10:40:52.978Z,11.05
2017-11-12T10:41:53.299Z,11.01
2017-11-12T10:42:53.607Z,10.97
2017-11-12T10:43:53.618Z,10.95
2017-11-12T10:44:53.589Z,10.94
2017-11-12T10:45:53.586Z,10.98
2017-11-12T10:46:53.397Z,10.97
2017-11-12T10:47:53.247Z,10.97
2017-11-12T10:48:53.232Z,11
2017-11-12T10:49:53.225Z,10.98
2017-11-12T10:50:53.213Z,10.92
2017-11-12T10:51:52.974Z,10.94
2017-11-12T10:52:53.207Z,10.89
2017-11-12T10:53:53.507Z,10.95
2017-11-12T10:54:53.495Z,10.95
2017-11-12T10:55:53.497Z,10.86
2017-11-12T10:56:53.477Z,10.9
2017-11-12T10:57:53.468Z,10.89
2017-11-12T10:58:53.139Z,10.94
2017-11-12T10:59:53.127Z,10.94
2017-11-12T11:00:53.437Z,10.92
2017-11-12T11:01:53.438Z,11
2017-11-12T11:02:53.423Z,10.92
2017-11-12T11:03:53.087Z,10.97
2017-11-12T11:04:53.405Z,10.9
2017-11-12T11:05:53.393Z,10.94
2017-11-12T11:06:52.731Z,10.97
2017-11-12T11:07:52.723Z,10.97
2017-11-12T11:08:53.376Z,10.97
2017-11-12T11:09:53.356Z,10.94
2017-11-12T11:10:53.017Z,10.83
2017-11-12T11:11:53.335Z,10.84
2017-11-12T11:12:52.675Z,10.92
2017-11-12T11:13:53.420Z,10.97
2017-11-12T11:14:53.458Z,10.89
2017-11-12T11:15:53.300Z,10.94
2017-11-12T11:16:53.288Z,10.87
2017-11-12T11:17:53.052Z,10.94
2017-11-12T11:18:52.617Z,10.94
2017-11-12T11:19:53.360Z,10.92
2017-11-12T11:20:52.940Z,10.95
2017-11-12T11:21:53.240Z,10.98
2017-11-12T11:22:53.227Z,10.92
2017-11-12T11:23:52.891Z,10.95
2017-11-12T11:24:53.213Z,10.92
2017-11-12T11:25:52.888Z,10.98
2017-11-12T11:26:53.190Z,10.94
2017-11-12T11:27:53.192Z,11.07
2017-11-12T11:28:53.188Z,11
2017-11-12T11:29:53.158Z,11.01
2017-11-12T11:30:53.156Z,11.1
2017-11-12T11:31:52.826Z,11.07
2017-11-12T11:32:52.963Z,11.08
2017-11-12T11:33:52.799Z,10.97
2017-11-12T11:34:53.120Z,11.01
2017-11-12T11:35:53.104Z,10.97
2017-11-12T11:36:53.099Z,11
2017-11-12T11:37:53.086Z,11
2017-11-12T11:38:53.076Z,11.02
2017-11-12T11:39:53.066Z,11.02
2017-11-12T11:40:52.731Z,11.01
2017-11-12T11:41:53.048Z,11.02
2017-11-12T11:42:53.044Z,11.01
2017-11-12T11:43:53.025Z,10.95
2017-11-12T11:44:53.025Z,10.95
2017-11-12T11:45:53.114Z,10.87
2017-11-12T11:46:53.005Z,10.94
2017-11-12T11:47:52.666Z,10.97
2017-11-12T11:48:52.655Z,10.98
2017-11-12T11:49:52.972Z,10.89
2017-11-12T11:50:52.970Z,10.84
2017-11-12T11:51:52.956Z,10.79
2017-11-12T11:52:52.964Z,10.86
2017-11-12T11:53:52.935Z,10.82
2017-11-12T11:54:52.928Z,10.79
2017-11-12T11:55:52.919Z,10.84
2017-11-12T11:56:52.909Z,10.86
2017-11-12T11:57:52.570Z,10.83
2017-11-12T11:58:52.238Z,10.9
2017-11-12T11:59:52.923Z,10.92
2017-11-12T12:00:52.866Z,10.87
2017-11-12T12:01:52.862Z,10.87
2017-11-12T12:02:52.862Z,10.89
2017-11-12T12:03:52.510Z,10.77
2017-11-12T12:04:52.837Z,10.77
2017-11-12T12:05:52.814Z,10.8
2017-11-12T12:06:52.816Z,10.76
2017-11-12T12:07:52.797Z,10.72
2017-11-12T12:08:52.793Z,10.71
2017-11-12T12:09:52.788Z,10.68
2017-11-12T12:10:52.775Z,10.59
2017-11-12T12:11:52.438Z,10.64
2017-11-12T12:12:52.424Z,10.67
2017-11-12T12:13:52.464Z,10.62
2017-11-12T12:14:52.739Z,10.62
2017-11-12T12:15:52.732Z,10.69
2017-11-12T12:16:52.711Z,10.61
2017-11-12T12:17:52.707Z,10.64
2017-11-12T12:18:52.377Z,10.62
2017-11-12T12:19:52.884Z,10.67
2017-11-12T12:20:52.779Z,10.51
2017-11-12T12:21:52.662Z,10.48
2017-11-12T12:22:52.654Z,10.55
2017-11-12T12:23:52.319Z,10.51
2017-11-12T12:24:52.308Z,10.51
2017-11-12T12:25:52.637Z,10.57
2017-11-12T12:26:52.296Z,10.55
2017-11-12T12:27:52.608Z,10.61
2017-11-12T12:28:52.697Z,10.59
2017-11-12T12:29:52.591Z,10.53
2017-11-12T12:30:51.928Z,10.53
2017-11-12T12:31:52.574Z,10.46
2017-11-12T12:32:52.559Z,10.51
2017-11-12T12:33:52.654Z,10.45
2017-11-12T12:34:52.535Z,10.39
2017-11-12T12:35:52.538Z,10.48
2017-11-12T12:36:52.528Z,10.43
2017-11-12T12:37:52.512Z,10.43
2017-11-12T12:38:52.502Z,10.46
2017-11-12T12:39:52.489Z,10.49
2017-11-12T12:40:52.484Z,10.34
2017-11-12T12:41:51.826Z,10.33
2017-11-12T12:42:52.138Z,10.31
2017-11-12T12:43:52.127Z,10.33
2017-11-12T12:44:52.454Z,10.33
2017-11-12T12:45:52.437Z,10.33
2017-11-12T12:46:52.428Z,10.34
2017-11-12T12:47:51.868Z,10.3
2017-11-12T12:48:52.234Z,10.27
2017-11-12T12:49:52.076Z,10.31
2017-11-12T12:50:52.386Z,10.31
2017-11-12T12:51:52.384Z,10.31
2017-11-12T12:52:52.365Z,10.34
2017-11-12T12:53:52.031Z,10.31
2017-11-12T12:54:52.024Z,10.3
2017-11-12T12:55:52.341Z,10.27
2017-11-12T12:56:52.105Z,10.24
2017-11-12T12:57:52.034Z,10.23
2017-11-12T12:58:52.312Z,10.31
2017-11-12T12:59:52.311Z,10.28
2017-11-12T13:00:52.299Z,10.25
2017-11-12T13:01:51.955Z,10.28
2017-11-12T13:02:52.275Z,10.31
2017-11-12T13:03:52.268Z,10.28
2017-11-12T13:04:51.924Z,10.36
2017-11-12T13:05:52.016Z,10.33
2017-11-12T13:06:52.329Z,10.33
2017-11-12T13:07:52.223Z,10.25
2017-11-12T13:08:51.893Z,10.31